createdAt,value
2023-03-29T00:02:13.472Z,21.27
2023-03-29T00:04:40.025Z,22.60
2023-03-29T00:07:06.532Z,22.98
2023-03-29T00:09:33.062Z,20.73
2023-03-29T00:11:59.972Z,17.85
2023-03-29T00:14:26.431Z,22.15
2023-03-29T00:16:52.937Z,24.20
2023-03-29T00:19:20.739Z,22.65
2023-03-29T00:21:47.143Z,24.13
2023-03-29T00:24:13.529Z,22.83
2023-03-29T00:26:39.928Z,19.90
2023-03-29T00:29:06.374Z,23.30
2023-03-29T00:31:32.882Z,23.27
2023-03-29T00:33:59.407Z,21.92
2023-03-29T00:36:27.191Z,17.88
2023-03-29T00:38:55.680Z,17.83
2023-03-29T00:41:22.089Z,18.30
2023-03-29T00:43:51.972Z,19.77
2023-03-29T00:46:18.481Z,21.60
2023-03-29T00:48:44.987Z,20.20
2023-03-29T00:51:11.956Z,18.52
2023-03-29T00:53:42.139Z,18.45
2023-03-29T00:56:10.297Z,19.02
2023-03-29T00:58:38.242Z,21.90
2023-03-29T01:01:06.574Z,19.85
2023-03-29T01:03:35.113Z,20.25
2023-03-29T01:06:02.947Z,16.58
2023-03-29T01:08:31.874Z,19.08
2023-03-29T01:11:02.796Z,21.08
2023-03-29T01:13:34.787Z,18.35
2023-03-29T01:16:01.888Z,25.48
2023-03-29T01:18:28.331Z,18.25
2023-03-29T01:21:03.376Z,20.42
2023-03-29T01:23:41.578Z,17.20
2023-03-29T01:26:12.012Z,18.67
2023-03-29T01:28:43.700Z,21.88
2023-03-29T01:31:12.746Z,22.40
2023-03-29T01:33:41.397Z,26.08
2023-03-29T01:36:12.763Z,27.30
2023-03-29T01:38:41.872Z,27.35
2023-03-29T01:41:08.447Z,27.92
2023-03-29T01:43:36.387Z,33.97
2023-03-29T01:46:06.166Z,30.90
2023-03-29T01:48:36.357Z,23.60
2023-03-29T01:51:05.415Z,23.05
2023-03-29T01:53:35.914Z,27.65
2023-03-29T01:56:04.357Z,26.25
2023-03-29T01:58:32.899Z,24.92
2023-03-29T02:01:00.251Z,26.80
2023-03-29T02:03:30.092Z,26.40
2023-03-29T02:08:26.239Z,28.67
2023-03-29T02:10:53.478Z,29.70
2023-03-29T02:13:20.092Z,30.98
2023-03-29T02:15:46.904Z,30.98
2023-03-29T02:18:13.862Z,29.65
2023-03-29T02:20:43.491Z,31.55
2023-03-29T02:23:15.231Z,31.70
2023-03-29T02:25:42.627Z,31.95
2023-03-29T02:28:09.579Z,32.67
2023-03-29T02:30:41.981Z,35.45
2023-03-29T02:33:10.268Z,42.33
2023-03-29T02:35:38.911Z,38.50
2023-03-29T02:38:08.757Z,41.83
2023-03-29T02:40:36.316Z,41.13
2023-03-29T02:43:03.297Z,43.53
2023-03-29T02:45:29.958Z,40.25
2023-03-29T02:47:57.881Z,46.70
2023-03-29T02:50:24.898Z,48.05
2023-03-29T02:52:52.607Z,47.28
2023-03-29T02:55:22.501Z,45.75
2023-03-29T02:57:48.909Z,37.97
2023-03-29T03:00:16.100Z,40.75
2023-03-29T03:02:42.591Z,38.88
2023-03-29T03:05:09.424Z,38.75
2023-03-29T03:07:35.840Z,38.60
2023-03-29T03:10:02.235Z,31.77
2023-03-29T03:12:30.036Z,36.05
2023-03-29T03:14:56.450Z,35.92
2023-03-29T03:17:22.885Z,37.40
2023-03-29T03:19:49.300Z,39.50
2023-03-29T03:22:15.737Z,35.47
2023-03-29T03:24:42.853Z,35.03
2023-03-29T03:27:09.265Z,35.25
2023-03-29T03:29:37.018Z,32.13
2023-03-29T03:32:03.684Z,34.75
2023-03-29T03:34:30.647Z,31.35
2023-03-29T03:36:57.070Z,37.03
2023-03-29T03:39:23.487Z,33.88
2023-03-29T03:41:49.877Z,40.25
2023-03-29T03:44:16.267Z,34.70
2023-03-29T03:46:44.051Z,33.20
2023-03-29T03:49:10.475Z,29.65
2023-03-29T03:51:36.885Z,32.88
2023-03-29T03:54:03.324Z,32.08
2023-03-29T03:56:29.739Z,33.10
2023-03-29T03:58:56.166Z,31.17
2023-03-29T04:01:22.711Z,33.78
2023-03-29T04:03:50.608Z,36.13
2023-03-29T04:06:17.087Z,29.33
2023-03-29T04:08:43.488Z,32.47
2023-03-29T04:11:09.906Z,31.48
2023-03-29T04:13:36.308Z,40.53
2023-03-29T04:16:02.822Z,37.42
2023-03-29T04:18:29.348Z,33.67
2023-03-29T04:20:57.210Z,36.58
2023-03-29T04:23:23.656Z,36.10
2023-03-29T04:25:53.706Z,33.72
2023-03-29T04:28:20.140Z,30.40
2023-03-29T04:30:46.610Z,33.50
2023-03-29T04:33:13.122Z,33.72
2023-03-29T04:35:39.598Z,35.00
2023-03-29T04:38:07.520Z,33.13
2023-03-29T04:40:33.956Z,34.78
2023-03-29T04:43:00.380Z,38.35
2023-03-29T04:45:26.826Z,34.88
2023-03-29T04:47:55.945Z,34.22
2023-03-29T04:50:22.453Z,35.05
2023-03-29T04:52:48.897Z,31.48
2023-03-29T04:55:16.682Z,32.80
2023-03-29T04:57:43.110Z,26.15
2023-03-29T05:00:09.873Z,29.83
2023-03-29T05:02:36.316Z,28.75
2023-03-29T05:05:02.928Z,29.77
2023-03-29T05:07:29.347Z,32.45
2023-03-29T05:09:55.721Z,35.83
2023-03-29T05:12:23.488Z,34.67
2023-03-29T05:14:49.941Z,38.08
2023-03-29T05:17:16.433Z,33.58
2023-03-29T05:19:42.872Z,34.17
2023-03-29T05:22:09.264Z,39.40
2023-03-29T05:24:35.635Z,40.47
2023-03-29T05:27:02.049Z,36.78
2023-03-29T05:29:29.834Z,43.30
2023-03-29T05:31:56.320Z,40.97
2023-03-29T05:34:22.817Z,35.45
2023-03-29T05:36:49.224Z,41.10
2023-03-29T05:39:15.639Z,38.45
2023-03-29T05:41:42.068Z,36.35
2023-03-29T05:44:08.466Z,35.30
2023-03-29T05:46:36.296Z,33.33
2023-03-29T05:49:03.044Z,41.00
2023-03-29T05:51:29.444Z,40.63
2023-03-29T05:53:55.899Z,41.40
2023-03-29T05:56:22.295Z,49.38
2023-03-29T05:58:48.733Z,62.03
2023-03-29T06:01:15.319Z,55.97
2023-03-29T06:03:43.449Z,44.47
2023-03-29T06:06:09.999Z,43.92
2023-03-29T06:08:36.579Z,46.00
2023-03-29T06:11:07.423Z,46.72
2023-03-29T06:13:34.167Z,56.17
2023-03-29T06:16:00.846Z,43.63
2023-03-29T06:18:27.278Z,49.22
2023-03-29T06:20:55.076Z,46.97
2023-03-29T06:23:22.030Z,40.97
2023-03-29T06:25:48.687Z,39.35
2023-03-29T06:28:15.496Z,31.75
2023-03-29T06:30:41.958Z,39.25
2023-03-29T06:33:08.929Z,37.58
2023-03-29T06:35:35.844Z,33.17
2023-03-29T06:38:04.045Z,32.63
2023-03-29T06:40:30.472Z,39.80
2023-03-29T06:42:57.276Z,33.38
2023-03-29T06:45:24.764Z,29.70
2023-03-29T06:47:52.890Z,31.42
2023-03-29T06:50:19.589Z,27.33
2023-03-29T06:52:46.427Z,28.65
2023-03-29T06:55:14.289Z,27.50
2023-03-29T06:57:40.704Z,29.33
2023-03-29T07:00:07.711Z,27.83
2023-03-29T07:02:34.218Z,33.78
2023-03-29T07:05:00.574Z,32.97
2023-03-29T07:07:26.953Z,29.23
2023-03-29T07:09:53.344Z,25.17
2023-03-29T07:12:22.148Z,26.48
2023-03-29T07:14:48.597Z,34.43
2023-03-29T07:17:14.999Z,31.30
2023-03-29T07:19:41.425Z,32.15
2023-03-29T07:22:07.826Z,31.58
2023-03-29T07:24:34.257Z,27.30
2023-03-29T07:27:04.381Z,31.13
2023-03-29T07:29:32.557Z,31.98
2023-03-29T07:31:59.045Z,24.88
2023-03-29T07:34:25.469Z,26.38
2023-03-29T07:36:51.841Z,27.63
2023-03-29T07:39:18.319Z,22.30
2023-03-29T07:41:44.764Z,24.70
2023-03-29T07:44:11.232Z,21.75
2023-03-29T07:46:39.011Z,26.90
2023-03-29T07:49:05.591Z,22.83
2023-03-29T07:51:31.996Z,24.90
2023-03-29T07:53:58.388Z,20.40
2023-03-29T07:56:24.800Z,20.67
2023-03-29T07:58:51.232Z,20.33
2023-03-29T08:01:19.450Z,24.88
2023-03-29T08:03:47.846Z,24.38
2023-03-29T08:06:14.343Z,20.35
2023-03-29T08:08:40.723Z,15.52
2023-03-29T08:11:07.138Z,17.13
2023-03-29T08:13:33.557Z,14.93
2023-03-29T08:16:00.108Z,15.52
2023-03-29T08:18:26.635Z,18.65
2023-03-29T08:20:54.392Z,15.48
2023-03-29T08:23:20.802Z,18.90
2023-03-29T08:25:47.239Z,17.60
2023-03-29T08:28:13.713Z,17.88
2023-03-29T08:30:40.196Z,13.15
2023-03-29T08:33:06.685Z,14.75
2023-03-29T08:35:33.216Z,12.70
2023-03-29T08:38:01.008Z,11.55
2023-03-29T08:40:28.868Z,19.08
2023-03-29T08:43:05.305Z,11.68
2023-03-29T08:45:34.706Z,12.30
2023-03-29T08:48:04.123Z,12.73
2023-03-29T08:50:33.388Z,12.88
2023-03-29T08:53:04.229Z,15.20
2023-03-29T08:55:32.434Z,17.48
2023-03-29T08:57:59.991Z,15.52
2023-03-29T09:00:32.231Z,16.05
2023-03-29T09:02:58.876Z,14.77
2023-03-29T09:05:27.066Z,13.90
2023-03-29T09:07:53.645Z,18.63
2023-03-29T09:10:25.963Z,15.82
2023-03-29T09:12:59.948Z,19.15
2023-03-29T09:15:28.586Z,13.07
2023-03-29T09:17:59.885Z,18.92
2023-03-29T09:20:30.176Z,15.40
2023-03-29T09:23:03.414Z,16.13
2023-03-29T09:25:50.772Z,10.40
2023-03-29T09:28:22.124Z,12.55
2023-03-29T09:30:51.467Z,12.18
2023-03-29T09:33:23.130Z,12.68
2023-03-29T09:35:51.827Z,12.15
2023-03-29T09:38:19.291Z,11.60
2023-03-29T09:40:49.791Z,11.20
2023-03-29T09:43:18.018Z,12.88
2023-03-29T09:45:48.984Z,12.07
2023-03-29T09:48:16.998Z,13.23
2023-03-29T09:50:44.468Z,11.60
2023-03-29T09:53:10.895Z,15.80
2023-03-29T09:55:37.579Z,12.13
2023-03-29T09:58:12.041Z,11.68
2023-03-29T10:00:38.731Z,12.05
2023-03-29T10:03:05.227Z,13.82
2023-03-29T10:05:33.018Z,12.35
2023-03-29T10:08:00.509Z,11.75
2023-03-29T10:10:28.586Z,10.80
2023-03-29T10:12:58.452Z,14.23
2023-03-29T10:15:30.114Z,14.85
2023-03-29T10:17:59.243Z,11.30
2023-03-29T10:20:25.672Z,14.55
2023-03-29T10:22:55.674Z,13.88
2023-03-29T10:25:25.355Z,11.43
2023-03-29T10:27:52.475Z,17.20
2023-03-29T10:30:20.606Z,11.93
2023-03-29T10:32:51.922Z,10.18
2023-03-29T10:35:21.264Z,12.02
2023-03-29T10:37:49.503Z,9.98
2023-03-29T10:40:18.689Z,7.75
2023-03-29T10:42:46.806Z,6.78
2023-03-29T10:45:19.363Z,7.75
2023-03-29T10:47:48.021Z,7.93
2023-03-29T10:50:16.450Z,6.73
2023-03-29T10:52:42.978Z,11.15
2023-03-29T10:55:12.346Z,9.80
2023-03-29T10:57:43.424Z,12.65
2023-03-29T11:00:13.745Z,9.45
2023-03-29T11:02:47.489Z,10.02
2023-03-29T11:05:27.787Z,11.82
2023-03-29T11:08:09.467Z,7.95
2023-03-29T11:10:39.745Z,8.77
2023-03-29T11:13:09.919Z,18.17
2023-03-29T11:15:40.830Z,6.43
2023-03-29T11:18:14.970Z,6.30
2023-03-29T11:20:45.314Z,7.97
2023-03-29T11:23:19.769Z,8.02
2023-03-29T11:25:51.816Z,8.73
2023-03-29T11:28:21.104Z,8.20
2023-03-29T11:30:49.999Z,8.77
2023-03-29T11:33:21.433Z,5.50
2023-03-29T11:35:53.262Z,8.93
2023-03-29T11:38:26.904Z,9.85
2023-03-29T11:40:56.533Z,8.25
2023-03-29T11:43:26.247Z,7.88
2023-03-29T11:45:54.047Z,6.30
2023-03-29T11:48:21.560Z,6.75
2023-03-29T11:50:50.184Z,5.15
2023-03-29T11:53:21.416Z,8.83
2023-03-29T11:55:48.454Z,5.85
2023-03-29T11:58:17.191Z,6.85
2023-03-29T12:00:45.272Z,6.80
2023-03-29T12:03:12.967Z,9.95
2023-03-29T12:05:41.197Z,8.73
2023-03-29T12:08:09.179Z,13.05
2023-03-29T12:10:37.898Z,12.05
2023-03-29T12:13:06.182Z,6.57
2023-03-29T12:15:35.313Z,9.90
2023-03-29T12:18:04.420Z,11.48
2023-03-29T12:20:33.620Z,13.48
2023-03-29T12:23:00.110Z,10.82
2023-03-29T12:25:28.238Z,10.73
2023-03-29T12:28:02.127Z,10.23
2023-03-29T12:30:35.578Z,6.82
2023-03-29T12:33:08.337Z,10.02
2023-03-29T12:35:37.110Z,9.50
2023-03-29T12:38:07.841Z,7.68
2023-03-29T12:40:41.214Z,8.68
2023-03-29T12:43:14.301Z,8.95
2023-03-29T12:45:42.785Z,15.00
2023-03-29T12:48:15.118Z,6.93
2023-03-29T12:50:43.897Z,8.85
2023-03-29T12:53:16.542Z,9.68
2023-03-29T12:55:48.221Z,7.55
2023-03-29T12:58:27.103Z,8.13
2023-03-29T13:00:57.358Z,6.18
2023-03-29T13:03:28.858Z,8.00
2023-03-29T13:06:02.110Z,7.72
2023-03-29T13:08:33.236Z,10.45
2023-03-29T13:10:59.734Z,8.38
2023-03-29T13:13:29.542Z,11.25
2023-03-29T13:15:56.826Z,11.20
2023-03-29T13:18:31.912Z,8.80
2023-03-29T13:21:02.002Z,12.30
2023-03-29T13:23:35.984Z,16.38
2023-03-29T13:26:09.645Z,8.55
2023-03-29T13:28:42.222Z,9.82
2023-03-29T13:31:19.261Z,12.48
2023-03-29T13:33:50.813Z,10.25
2023-03-29T13:36:23.339Z,8.05
2023-03-29T13:38:52.031Z,9.18
2023-03-29T13:41:27.544Z,10.93
2023-03-29T13:43:56.071Z,8.15
2023-03-29T13:46:23.757Z,4.65
2023-03-29T13:49:08.164Z,5.78
2023-03-29T13:51:38.004Z,7.80
2023-03-29T13:54:07.309Z,12.00
2023-03-29T13:56:38.640Z,12.88
2023-03-29T13:59:10.318Z,8.13
2023-03-29T14:01:39.632Z,5.97
2023-03-29T14:04:07.092Z,11.77
2023-03-29T14:06:35.430Z,8.23
2023-03-29T14:09:03.394Z,5.00
2023-03-29T14:11:30.555Z,9.65
2023-03-29T14:13:58.135Z,8.43
2023-03-29T14:16:28.030Z,5.32
2023-03-29T14:18:57.926Z,6.25
2023-03-29T14:21:24.330Z,9.00
2023-03-29T14:23:54.507Z,7.68
2023-03-29T14:26:22.105Z,7.15
2023-03-29T14:28:49.420Z,9.80
2023-03-29T14:31:19.417Z,4.65
2023-03-29T14:33:51.268Z,6.20
2023-03-29T14:36:17.832Z,4.82
2023-03-29T14:38:47.049Z,6.93
2023-03-29T14:41:13.487Z,5.68
2023-03-29T14:43:40.088Z,4.53
2023-03-29T14:46:07.178Z,5.65
2023-03-29T14:48:33.839Z,9.30
2023-03-29T14:51:01.770Z,4.07
2023-03-29T14:53:29.350Z,6.47
2023-03-29T14:55:56.026Z,13.23
2023-03-29T14:58:23.495Z,7.20
2023-03-29T15:00:50.597Z,5.80
2023-03-29T15:03:17.380Z,4.30
2023-03-29T15:05:50.540Z,6.07
2023-03-29T15:08:19.667Z,3.08
2023-03-29T15:10:46.152Z,5.22
2023-03-29T15:13:16.255Z,4.20
2023-03-29T15:15:42.744Z,3.50
2023-03-29T15:18:11.088Z,4.78
2023-03-29T15:20:38.783Z,4.93
2023-03-29T15:23:08.536Z,4.85
2023-03-29T15:25:37.492Z,4.60
2023-03-29T15:28:04.045Z,5.32
2023-03-29T15:30:35.118Z,6.03
2023-03-29T15:33:19.965Z,5.47
2023-03-29T15:35:49.023Z,5.57
2023-03-29T15:38:15.641Z,4.82
2023-03-29T15:40:43.563Z,6.63
2023-03-29T15:43:10.525Z,4.35
2023-03-29T15:45:36.924Z,5.18
2023-03-29T15:48:08.905Z,5.07
2023-03-29T15:50:35.353Z,5.25
2023-03-29T15:53:14.109Z,8.00
2023-03-29T15:55:44.927Z,7.60
2023-03-29T15:58:13.016Z,4.68
2023-03-29T16:00:39.811Z,5.88
2023-03-29T16:03:06.370Z,7.80
2023-03-29T16:05:32.779Z,7.97
2023-03-29T16:07:59.183Z,7.50
2023-03-29T16:10:25.662Z,9.10
2023-03-29T16:12:53.457Z,5.28
2023-03-29T16:15:21.801Z,4.38
2023-03-29T16:17:48.266Z,4.53
2023-03-29T16:20:14.897Z,4.82
2023-03-29T16:22:41.340Z,3.60
2023-03-29T16:25:12.107Z,5.20
2023-03-29T16:27:38.518Z,4.55
2023-03-29T16:30:07.332Z,5.20
2023-03-29T16:32:33.815Z,5.20
2023-03-29T16:35:00.238Z,4.55
2023-03-29T16:37:26.608Z,6.80
2023-03-29T16:39:53.049Z,5.80
2023-03-29T16:42:19.447Z,6.28
2023-03-29T16:44:45.847Z,6.78
2023-03-29T16:47:13.622Z,6.18
2023-03-29T16:49:40.257Z,6.05
2023-03-29T16:52:06.928Z,5.35
2023-03-29T16:54:33.306Z,5.30
2023-03-29T16:56:59.771Z,5.53
2023-03-29T16:59:26.227Z,6.95
2023-03-29T17:01:52.734Z,5.57
2023-03-29T17:04:20.658Z,5.15
2023-03-29T17:06:47.105Z,9.40
2023-03-29T17:09:13.519Z,8.45
2023-03-29T17:11:39.934Z,6.88
2023-03-29T17:14:06.321Z,8.00
2023-03-29T17:16:32.826Z,6.13
2023-03-29T17:18:59.318Z,8.25
2023-03-29T17:21:27.152Z,8.43
2023-03-29T17:23:53.522Z,6.78
2023-03-29T17:26:19.940Z,5.85
2023-03-29T17:28:46.363Z,8.95
2023-03-29T17:31:12.894Z,5.85
2023-03-29T17:33:39.392Z,7.00
2023-03-29T17:36:09.200Z,9.35
2023-03-29T17:38:37.104Z,8.68
2023-03-29T17:41:03.632Z,13.60
2023-03-29T17:43:30.084Z,9.93
2023-03-29T17:45:56.599Z,11.73
2023-03-29T17:48:23.310Z,5.72
2023-03-29T17:50:49.743Z,12.00
2023-03-29T17:53:16.169Z,9.27
2023-03-29T17:55:44.023Z,8.25
2023-03-29T17:58:10.461Z,7.43
2023-03-29T18:00:36.932Z,10.63
2023-03-29T18:03:03.558Z,10.80
2023-03-29T18:05:29.966Z,8.32
2023-03-29T18:07:56.616Z,11.73
2023-03-29T18:10:23.056Z,8.13
2023-03-29T18:12:50.849Z,9.85
2023-03-29T18:15:17.266Z,10.20
2023-03-29T18:17:43.751Z,8.80
2023-03-29T18:20:10.597Z,11.57
2023-03-29T18:22:37.072Z,7.72
2023-03-29T18:25:03.778Z,10.32
2023-03-29T18:27:30.175Z,12.80
2023-03-29T18:29:57.954Z,9.02
2023-03-29T18:32:24.417Z,12.80
2023-03-29T18:34:50.821Z,12.05
2023-03-29T18:37:17.201Z,8.57
2023-03-29T18:39:43.916Z,9.23
2023-03-29T18:42:12.067Z,8.35
2023-03-29T18:44:38.967Z,13.30
2023-03-29T18:47:06.796Z,11.57
2023-03-29T18:49:33.190Z,12.77
2023-03-29T18:51:59.618Z,9.73
2023-03-29T18:54:26.061Z,13.48
2023-03-29T18:56:52.510Z,9.52
2023-03-29T18:59:18.943Z,10.20
2023-03-29T19:01:45.497Z,12.80
2023-03-29T19:04:13.328Z,11.10
2023-03-29T19:06:40.341Z,8.73
2023-03-29T19:09:06.749Z,12.50
2023-03-29T19:11:33.191Z,8.95
2023-03-29T19:13:59.642Z,12.45
2023-03-29T19:16:26.099Z,11.13
2023-03-29T19:18:52.558Z,12.07
2023-03-29T19:21:20.322Z,9.00
2023-03-29T19:23:46.741Z,11.10
2023-03-29T19:26:13.196Z,10.05
2023-03-29T19:28:39.605Z,12.35
2023-03-29T19:31:06.069Z,12.20
2023-03-29T19:33:32.511Z,11.32
2023-03-29T19:35:59.123Z,8.27
2023-03-29T19:38:26.983Z,12.27
2023-03-29T19:40:53.371Z,14.40
2023-03-29T19:43:19.809Z,9.25
2023-03-29T19:45:46.910Z,10.50
2023-03-29T19:48:21.837Z,7.53
2023-03-29T19:50:49.426Z,11.93
2023-03-29T19:53:15.929Z,10.27
2023-03-29T19:55:43.808Z,9.07
2023-03-29T19:58:10.278Z,8.60
2023-03-29T20:00:36.779Z,7.32
2023-03-29T20:03:03.237Z,7.20
2023-03-29T20:05:29.730Z,6.60
2023-03-29T20:07:56.199Z,9.77
2023-03-29T20:10:22.785Z,6.20
2023-03-29T20:12:50.590Z,3.17
2023-03-29T20:15:17.138Z,6.35
2023-03-29T20:17:43.656Z,9.32
2023-03-29T20:20:10.423Z,3.40
2023-03-29T20:22:37.013Z,5.68
2023-03-29T20:25:03.653Z,3.88
2023-03-29T20:27:30.059Z,5.78
2023-03-29T20:29:57.842Z,6.05
2023-03-29T20:32:24.278Z,3.53
2023-03-29T20:34:50.756Z,7.80
2023-03-29T20:37:17.190Z,5.38
2023-03-29T20:39:43.612Z,4.45
2023-03-29T20:42:10.066Z,4.78
2023-03-29T20:44:36.783Z,4.90
2023-03-29T20:47:04.670Z,2.90
2023-03-29T20:49:31.367Z,5.40
2023-03-29T20:51:57.782Z,5.07
2023-03-29T20:54:24.646Z,4.05
2023-03-29T20:56:51.528Z,3.17
2023-03-29T20:59:18.027Z,4.80
2023-03-29T21:01:53.634Z,3.00
2023-03-29T21:04:21.541Z,3.53
2023-03-29T21:06:47.966Z,9.00
2023-03-29T21:09:14.413Z,3.72
2023-03-29T21:11:40.878Z,4.05
2023-03-29T21:14:07.541Z,5.35
2023-03-29T21:16:34.009Z,5.57
2023-03-29T21:19:00.540Z,3.65
2023-03-29T21:21:28.342Z,3.38
2023-03-29T21:23:54.812Z,4.90
2023-03-29T21:26:21.247Z,5.03
2023-03-29T21:28:47.678Z,8.02
2023-03-29T21:31:14.193Z,2.80
2023-03-29T21:33:40.675Z,4.15
2023-03-29T21:36:07.320Z,5.63
2023-03-29T21:38:35.320Z,2.90
2023-03-29T21:41:02.023Z,6.80
2023-03-29T21:43:28.574Z,6.30
2023-03-29T21:45:55.111Z,4.70
2023-03-29T21:48:21.534Z,3.95
2023-03-29T21:50:48.323Z,3.72
2023-03-29T21:53:14.745Z,2.47
2023-03-29T21:55:42.544Z,2.20
2023-03-29T21:58:08.951Z,4.97
2023-03-29T22:00:35.406Z,3.92
2023-03-29T22:03:01.869Z,5.70
2023-03-29T22:05:28.399Z,3.78
2023-03-29T22:07:54.827Z,7.47
2023-03-29T22:10:21.311Z,4.47
2023-03-29T22:12:49.252Z,6.63
2023-03-29T22:15:15.692Z,6.28
2023-03-29T22:17:42.159Z,3.92
2023-03-29T22:20:15.146Z,6.57
2023-03-29T22:22:43.707Z,3.45
2023-03-29T22:25:10.136Z,5.72
2023-03-29T22:27:36.745Z,6.30
2023-03-29T22:30:05.226Z,3.25
2023-03-29T22:32:31.978Z,6.40
2023-03-29T22:34:58.495Z,7.18
2023-03-29T22:37:24.899Z,4.00
2023-03-29T22:39:51.500Z,8.05
2023-03-29T22:42:17.953Z,7.47
2023-03-29T22:44:44.353Z,8.93
2023-03-29T22:47:12.234Z,5.47
2023-03-29T22:49:38.715Z,6.40
2023-03-29T22:52:05.275Z,5.13
2023-03-29T22:54:31.639Z,6.55
2023-03-29T22:56:58.177Z,5.65
2023-03-29T22:59:24.687Z,6.13
2023-03-29T23:01:51.266Z,5.70
2023-03-29T23:04:19.086Z,5.35
2023-03-29T23:06:45.503Z,5.18
2023-03-29T23:09:12.978Z,3.88
2023-03-29T23:11:40.307Z,8.75
2023-03-29T23:14:06.795Z,4.65
2023-03-29T23:16:33.246Z,4.45
2023-03-29T23:18:59.695Z,5.25
2023-03-29T23:21:33.662Z,4.25
2023-03-29T23:24:00.105Z,4.55
2023-03-29T23:26:26.609Z,3.88
2023-03-29T23:28:53.285Z,7.28
2023-03-29T23:31:20.108Z,5.70
2023-03-29T23:33:46.590Z,4.32
2023-03-29T23:36:14.099Z,4.32
2023-03-29T23:38:43.420Z,5.00
2023-03-29T23:41:09.957Z,7.13
2023-03-29T23:43:37.260Z,8.00
2023-03-29T23:46:04.327Z,4.90
2023-03-29T23:48:30.801Z,5.88
2023-03-29T23:50:57.376Z,6.82
2023-03-29T23:53:24.321Z,5.80
2023-03-29T23:55:55.263Z,3.20
2023-03-29T23:58:21.675Z,4.70
